createdAt,value
2019-03-25T00:01:40.988Z,11.80
2019-03-25T00:04:09.412Z,12.50
2019-03-25T00:06:37.925Z,11.30
2019-03-25T00:09:07.565Z,11.40
2019-03-25T00:11:36.218Z,11.87
2019-03-25T00:14:04.851Z,11.57
2019-03-25T00:16:33.239Z,12.03
2019-03-25T00:19:02.255Z,12.83
2019-03-25T00:21:30.669Z,11.90
2019-03-25T00:23:59.136Z,11.90
2019-03-25T00:26:27.766Z,11.80
2019-03-25T00:28:56.283Z,11.97
2019-03-25T00:31:25.046Z,11.90
2019-03-25T00:33:53.429Z,12.27
2019-03-25T00:36:22.250Z,11.03
2019-03-25T00:38:51.031Z,11.07
2019-03-25T00:41:19.435Z,11.70
2019-03-25T00:43:47.817Z,12.40
2019-03-25T00:46:16.220Z,11.57
2019-03-25T00:48:44.770Z,13.20
2019-03-25T00:51:13.539Z,12.27
2019-03-25T00:53:57.492Z,12.20
2019-03-25T00:56:26.166Z,12.60
2019-03-25T00:58:54.888Z,11.60
2019-03-25T01:01:23.287Z,11.80
2019-03-25T01:03:52.028Z,12.30
2019-03-25T01:06:20.490Z,12.00
2019-03-25T01:08:49.004Z,12.27
2019-03-25T01:11:17.402Z,12.23
2019-03-25T01:13:45.814Z,12.13
2019-03-25T01:16:14.411Z,12.77
2019-03-25T01:18:42.816Z,11.20
2019-03-25T01:21:11.229Z,12.43
2019-03-25T01:23:39.608Z,12.50
2019-03-25T01:26:07.991Z,12.27
2019-03-25T01:28:36.930Z,12.07
2019-03-25T01:31:05.622Z,12.10
2019-03-25T01:33:34.009Z,13.00
2019-03-25T01:36:02.704Z,13.47
2019-03-25T01:38:31.608Z,12.07
2019-03-25T01:41:00.375Z,12.20
2019-03-25T01:43:28.923Z,12.20
2019-03-25T01:45:57.673Z,12.30
2019-03-25T01:48:26.524Z,11.27
2019-03-25T01:50:54.915Z,12.17
2019-03-25T01:53:23.325Z,13.10
2019-03-25T01:55:51.714Z,12.63
2019-03-25T01:58:20.104Z,13.77
2019-03-25T02:00:48.509Z,12.30
2019-03-25T02:03:16.992Z,12.30
2019-03-25T02:05:45.998Z,12.13
2019-03-25T02:08:14.684Z,13.27
2019-03-25T02:10:43.076Z,12.10
2019-03-25T02:13:11.482Z,12.30
2019-03-25T02:15:39.857Z,11.53
2019-03-25T02:18:08.260Z,12.00
2019-03-25T02:20:36.692Z,12.10
2019-03-25T02:23:05.670Z,12.83
2019-03-25T02:25:34.470Z,11.17
2019-03-25T02:28:02.953Z,11.10
2019-03-25T02:30:31.308Z,12.33
2019-03-25T02:32:59.695Z,12.70
2019-03-25T02:35:28.322Z,12.20
2019-03-25T02:37:56.773Z,12.60
2019-03-25T02:40:25.156Z,12.20
2019-03-25T02:42:53.662Z,12.40
2019-03-25T02:45:22.144Z,11.80
2019-03-25T02:47:50.532Z,13.57
2019-03-25T02:50:18.926Z,13.43
2019-03-25T02:52:47.384Z,14.33
2019-03-25T02:55:15.766Z,13.37
2019-03-25T02:57:44.518Z,15.77
2019-03-25T03:00:15.993Z,15.57
2019-03-25T03:02:44.393Z,13.17
2019-03-25T03:05:13.107Z,14.93
2019-03-25T03:07:41.826Z,13.60
2019-03-25T03:10:10.696Z,14.20
2019-03-25T03:12:39.435Z,12.63
2019-03-25T03:15:08.408Z,12.23
2019-03-25T03:17:37.083Z,13.23
2019-03-25T03:20:07.254Z,13.03
2019-03-25T03:22:35.890Z,12.23
2019-03-25T03:25:04.838Z,12.60
2019-03-25T03:27:33.471Z,13.20
2019-03-25T03:30:01.850Z,12.33
2019-03-25T03:32:30.298Z,12.90
2019-03-25T03:34:58.668Z,12.47
2019-03-25T03:37:27.060Z,12.17
2019-03-25T03:39:55.775Z,13.60
2019-03-25T03:42:24.938Z,13.13
2019-03-25T03:44:53.339Z,14.90
2019-03-25T03:47:21.848Z,13.60
2019-03-25T03:49:50.341Z,12.97
2019-03-25T03:52:18.775Z,12.70
2019-03-25T03:54:47.930Z,12.23
2019-03-25T03:57:16.489Z,12.77
2019-03-25T03:59:45.374Z,13.07
2019-03-25T04:02:13.748Z,13.53
2019-03-25T04:04:42.259Z,12.90
2019-03-25T04:07:10.909Z,12.50
2019-03-25T04:09:39.695Z,12.17
2019-03-25T04:12:08.429Z,12.97
2019-03-25T04:14:37.072Z,12.47
2019-03-25T04:17:05.572Z,12.60
2019-03-25T04:19:34.237Z,12.63
2019-03-25T04:22:02.616Z,13.70
2019-03-25T04:24:31.309Z,14.00
2019-03-25T04:27:00.061Z,13.57
2019-03-25T04:29:28.453Z,14.10
2019-03-25T04:31:57.159Z,13.23
2019-03-25T04:34:25.588Z,12.80
2019-03-25T04:36:54.735Z,14.10
2019-03-25T04:39:23.233Z,13.80
2019-03-25T04:41:51.635Z,14.17
2019-03-25T04:44:20.029Z,12.97
2019-03-25T04:46:48.453Z,13.23
2019-03-25T04:49:16.836Z,14.90
2019-03-25T04:51:45.325Z,13.40
2019-03-25T04:54:13.919Z,14.03
2019-03-25T04:56:42.585Z,12.93
2019-03-25T04:59:11.386Z,12.47
2019-03-25T05:01:40.162Z,12.20
2019-03-25T05:04:08.552Z,11.97
2019-03-25T05:06:36.925Z,9.97
2019-03-25T05:09:06.307Z,10.37
2019-03-25T05:11:35.005Z,10.77
2019-03-25T05:14:03.699Z,10.93
2019-03-25T05:16:32.385Z,11.63
2019-03-25T05:19:00.777Z,11.57
2019-03-25T05:21:29.455Z,10.97
2019-03-25T05:23:57.897Z,12.07
2019-03-25T05:26:26.285Z,11.33
2019-03-25T05:28:54.811Z,11.70
2019-03-25T05:31:23.202Z,11.77
2019-03-25T05:33:51.667Z,11.17
2019-03-25T05:36:20.436Z,11.90
2019-03-25T05:38:48.824Z,11.70
2019-03-25T05:41:17.502Z,11.43
2019-03-25T05:43:46.004Z,11.00
2019-03-25T05:46:14.448Z,11.03
2019-03-25T05:48:42.848Z,10.50
2019-03-25T05:51:11.446Z,10.40
2019-03-25T05:53:39.851Z,10.37
2019-03-25T05:56:08.667Z,9.77
2019-03-25T05:58:37.091Z,9.17
2019-03-25T06:01:05.655Z,9.13
2019-03-25T06:03:34.063Z,9.40
2019-03-25T06:06:02.443Z,9.80
2019-03-25T06:08:31.131Z,9.60
2019-03-25T06:10:59.507Z,8.67
2019-03-25T06:13:27.887Z,9.07
2019-03-25T06:15:56.290Z,9.10
2019-03-25T06:18:24.667Z,8.80
2019-03-25T06:20:53.057Z,9.30
2019-03-25T06:23:21.787Z,9.40
2019-03-25T06:25:50.394Z,8.83
2019-03-25T06:28:18.881Z,8.87
2019-03-25T06:30:47.263Z,9.43
2019-03-25T06:33:15.836Z,8.80
2019-03-25T06:35:44.227Z,9.17
2019-03-25T06:38:12.607Z,9.40
2019-03-25T06:40:41.019Z,9.10
2019-03-25T06:43:09.399Z,9.13
2019-03-25T06:45:37.788Z,9.93
2019-03-25T06:48:06.211Z,9.10
2019-03-25T06:50:34.587Z,9.90
2019-03-25T06:53:02.957Z,9.13
2019-03-25T06:55:31.774Z,10.23
2019-03-25T06:58:00.231Z,10.40
2019-03-25T07:00:28.903Z,9.27
2019-03-25T07:02:57.289Z,9.90
2019-03-25T07:05:25.750Z,9.70
2019-03-25T07:07:54.183Z,8.87
2019-03-25T07:10:34.021Z,9.13
2019-03-25T07:13:03.007Z,9.37
2019-03-25T07:15:31.743Z,9.50
2019-03-25T07:18:00.127Z,8.80
2019-03-25T07:20:28.517Z,8.80
2019-03-25T07:22:57.218Z,8.53
2019-03-25T07:25:25.630Z,8.80
2019-03-25T07:27:54.006Z,8.93
2019-03-25T07:30:22.471Z,9.03
2019-03-25T07:32:50.865Z,8.50
2019-03-25T07:35:19.249Z,9.10
2019-03-25T07:37:47.897Z,9.40
2019-03-25T07:40:16.562Z,8.67
2019-03-25T07:42:44.964Z,9.70
2019-03-25T07:45:14.145Z,8.80
2019-03-25T07:47:42.543Z,9.07
2019-03-25T07:50:11.727Z,10.67
2019-03-25T07:52:40.142Z,9.30
2019-03-25T07:55:09.078Z,9.90
2019-03-25T07:57:47.764Z,9.23
2019-03-25T08:00:15.657Z,9.50
2019-03-25T08:02:44.216Z,9.20
2019-03-25T08:05:13.046Z,9.20
2019-03-25T08:07:41.756Z,10.70
2019-03-25T08:10:11.380Z,8.80
2019-03-25T08:12:39.765Z,8.73
2019-03-25T08:15:09.058Z,8.53
2019-03-25T08:17:37.524Z,8.93
2019-03-25T08:20:08.234Z,9.57
2019-03-25T08:22:36.640Z,9.00
2019-03-25T08:25:07.093Z,8.33
2019-03-25T08:27:35.857Z,8.40
2019-03-25T08:30:07.540Z,8.87
2019-03-25T08:32:36.306Z,9.27
2019-03-25T08:35:06.638Z,9.43
2019-03-25T08:37:35.310Z,9.13
2019-03-25T08:40:05.676Z,8.60
2019-03-25T08:42:34.125Z,8.53
2019-03-25T08:45:02.805Z,7.60
2019-03-25T08:47:31.187Z,9.30
2019-03-25T08:49:59.587Z,9.17
2019-03-25T08:52:28.059Z,9.27
2019-03-25T08:54:56.465Z,8.17
2019-03-25T08:57:24.841Z,8.30
2019-03-25T08:59:53.495Z,8.87
2019-03-25T09:02:21.959Z,8.30
2019-03-25T09:04:50.367Z,9.30
2019-03-25T09:07:18.762Z,10.23
2019-03-25T09:09:47.414Z,8.13
2019-03-25T09:12:15.792Z,8.20
2019-03-25T09:14:44.193Z,8.10
2019-03-25T09:17:13.475Z,7.33
2019-03-25T09:19:41.856Z,8.20
2019-03-25T09:22:10.368Z,8.17
2019-03-25T09:24:38.745Z,8.03
2019-03-25T09:27:07.124Z,6.50
2019-03-25T09:29:35.522Z,7.17
2019-03-25T09:32:04.264Z,7.17
2019-03-25T09:34:32.778Z,7.10
2019-03-25T09:37:01.209Z,7.17
2019-03-25T09:39:29.604Z,6.10
2019-03-25T09:41:58.030Z,6.70
2019-03-25T09:44:26.417Z,6.40
2019-03-25T09:46:55.152Z,5.90
2019-03-25T09:49:23.939Z,6.37
2019-03-25T09:51:52.974Z,6.20
2019-03-25T09:54:21.406Z,6.43
2019-03-25T09:56:49.900Z,7.03
2019-03-25T09:59:18.273Z,6.93
2019-03-25T10:01:46.661Z,6.60
2019-03-25T10:04:15.041Z,7.00
2019-03-25T10:06:43.536Z,6.20
2019-03-25T10:09:12.104Z,6.70
2019-03-25T10:11:40.776Z,7.30
2019-03-25T10:14:09.578Z,7.43
2019-03-25T10:16:38.013Z,8.10
2019-03-25T10:19:06.363Z,6.97
2019-03-25T10:21:34.995Z,7.33
2019-03-25T10:24:03.408Z,7.37
2019-03-25T10:26:31.778Z,6.60
2019-03-25T10:29:00.152Z,6.80
2019-03-25T10:31:28.659Z,7.07
2019-03-25T10:33:57.144Z,7.43
2019-03-25T10:36:25.768Z,6.73
2019-03-25T10:38:54.162Z,6.50
2019-03-25T10:41:22.569Z,6.43
2019-03-25T10:43:51.071Z,6.87
2019-03-25T10:46:19.536Z,11.10
2019-03-25T10:48:47.932Z,11.60
2019-03-25T10:51:16.329Z,10.10
2019-03-25T10:53:44.999Z,10.13
2019-03-25T10:56:13.650Z,8.63
2019-03-25T10:58:42.044Z,8.60
2019-03-25T11:01:10.984Z,7.63
2019-03-25T11:03:39.413Z,7.73
2019-03-25T11:06:07.979Z,7.70
2019-03-25T11:08:36.378Z,6.97
2019-03-25T11:11:06.348Z,7.20
2019-03-25T11:13:48.912Z,7.73
2019-03-25T11:16:17.512Z,7.10
2019-03-25T11:18:46.263Z,7.57
2019-03-25T11:21:14.651Z,6.50
2019-03-25T11:23:43.104Z,7.97
2019-03-25T11:26:11.500Z,6.77
2019-03-25T11:28:39.926Z,6.57
2019-03-25T11:31:08.370Z,7.00
2019-03-25T11:33:37.155Z,7.27
2019-03-25T11:36:05.590Z,6.90
2019-03-25T11:38:34.318Z,8.53
2019-03-25T11:41:02.723Z,9.03
2019-03-25T11:43:31.199Z,13.40
2019-03-25T11:45:59.694Z,12.03
2019-03-25T11:48:28.033Z,13.27
2019-03-25T11:50:56.500Z,13.07
2019-03-25T11:53:24.910Z,11.17
2019-03-25T11:55:53.589Z,10.90
2019-03-25T11:58:22.102Z,13.80
2019-03-25T12:00:50.820Z,12.80
2019-03-25T12:03:19.442Z,12.17
2019-03-25T12:05:47.901Z,11.40
2019-03-25T12:08:16.607Z,9.50
2019-03-25T12:10:45.681Z,10.87
2019-03-25T12:13:14.021Z,9.73
2019-03-25T12:15:42.505Z,9.37
2019-03-25T12:18:11.073Z,8.97
2019-03-25T12:20:39.481Z,9.03
2019-03-25T12:23:08.120Z,8.90
2019-03-25T12:25:36.520Z,9.10
2019-03-25T12:28:04.910Z,8.93
2019-03-25T12:30:33.654Z,8.97
2019-03-25T12:33:04.219Z,8.63
2019-03-25T12:35:32.203Z,8.77
2019-03-25T12:38:00.578Z,7.60
2019-03-25T12:40:28.986Z,9.67
2019-03-25T12:42:57.373Z,9.20
2019-03-25T12:45:28.319Z,7.90
2019-03-25T12:47:56.006Z,7.30
2019-03-25T12:50:24.538Z,7.73
2019-03-25T12:52:53.177Z,7.83
2019-03-25T12:55:21.609Z,8.17
2019-03-25T12:57:50.029Z,8.10
2019-03-25T13:00:21.508Z,9.07
2019-03-25T13:02:50.264Z,9.97
2019-03-25T13:05:18.676Z,10.20
2019-03-25T13:07:47.060Z,8.47
2019-03-25T13:10:15.540Z,8.97
2019-03-25T13:12:44.302Z,8.33
2019-03-25T13:15:12.754Z,7.00
2019-03-25T13:17:41.576Z,6.43
2019-03-25T13:20:10.058Z,6.60
2019-03-25T13:22:38.726Z,6.10
2019-03-25T13:25:07.938Z,6.13
2019-03-25T13:27:36.315Z,4.97
2019-03-25T13:30:10.465Z,5.43
2019-03-25T13:32:38.854Z,5.67
2019-03-25T13:35:07.387Z,6.17
2019-03-25T13:37:36.069Z,5.27
2019-03-25T13:40:07.317Z,5.63
2019-03-25T13:42:35.768Z,6.40
2019-03-25T13:45:07.220Z,6.47
2019-03-25T13:47:36.139Z,6.30
2019-03-25T13:50:06.454Z,7.17
2019-03-25T13:52:35.153Z,7.70
2019-03-25T13:55:04.546Z,6.63
2019-03-25T13:57:33.245Z,8.30
2019-03-25T14:00:03.623Z,7.40
2019-03-25T14:02:31.829Z,6.10
2019-03-25T14:05:00.346Z,6.47
2019-03-25T14:07:28.878Z,7.23
2019-03-25T14:09:57.288Z,7.20
2019-03-25T14:12:25.743Z,7.20
2019-03-25T14:14:54.135Z,7.57
2019-03-25T14:17:23.174Z,8.70
2019-03-25T14:19:51.592Z,7.23
2019-03-25T14:22:20.101Z,7.73
2019-03-25T14:24:48.888Z,8.27
2019-03-25T14:27:17.576Z,8.97
2019-03-25T14:29:45.955Z,8.60
2019-03-25T14:32:14.438Z,9.00
2019-03-25T14:34:44.967Z,9.50
2019-03-25T14:37:12.946Z,9.20
2019-03-25T14:39:41.336Z,10.03
2019-03-25T14:42:10.407Z,9.67
2019-03-25T14:44:38.787Z,11.20
2019-03-25T14:47:07.235Z,11.07
2019-03-25T14:49:35.955Z,14.80
2019-03-25T14:52:04.519Z,17.17
2019-03-25T14:54:32.923Z,13.67
2019-03-25T14:57:01.324Z,13.67
2019-03-25T14:59:30.297Z,14.10
2019-03-25T15:01:58.695Z,12.87
2019-03-25T15:04:27.095Z,12.40
2019-03-25T15:06:55.851Z,12.27
2019-03-25T15:09:24.237Z,11.73
2019-03-25T15:11:52.715Z,11.17
2019-03-25T15:14:21.208Z,10.63
2019-03-25T15:16:49.973Z,10.33
2019-03-25T15:19:18.478Z,10.93
2019-03-25T15:21:46.944Z,9.13
2019-03-25T15:24:15.412Z,9.93
2019-03-25T15:26:43.803Z,10.00
2019-03-25T15:29:12.797Z,9.87
2019-03-25T15:31:41.473Z,9.30
2019-03-25T15:34:10.161Z,10.60
2019-03-25T15:36:43.849Z,9.47
2019-03-25T15:39:12.646Z,10.30
2019-03-25T15:41:41.032Z,12.30
2019-03-25T15:44:09.423Z,10.37
2019-03-25T15:46:38.102Z,10.90
2019-03-25T15:49:06.487Z,10.07
2019-03-25T15:51:35.057Z,11.60
2019-03-25T15:54:04.539Z,11.90
2019-03-25T15:56:32.973Z,13.13
2019-03-25T15:59:02.946Z,30.80
2019-03-25T16:01:31.637Z,33.80
2019-03-25T16:04:00.014Z,29.17
2019-03-25T16:06:28.483Z,30.30
2019-03-25T16:08:57.199Z,30.23
2019-03-25T16:11:25.833Z,27.30
2019-03-25T16:13:54.284Z,27.23
2019-03-25T16:16:34.156Z,24.53
2019-03-25T16:19:02.542Z,22.67
2019-03-25T16:21:30.951Z,23.40
2019-03-25T16:23:59.366Z,21.17
2019-03-25T16:26:27.812Z,18.20
2019-03-25T16:28:56.289Z,17.97
2019-03-25T16:31:25.003Z,16.17
2019-03-25T16:33:53.451Z,17.40
2019-03-25T16:36:21.871Z,16.90
2019-03-25T16:38:50.259Z,15.60
2019-03-25T16:41:18.697Z,17.90
2019-03-25T16:43:48.598Z,14.53
2019-03-25T16:46:19.034Z,15.47
2019-03-25T16:48:47.450Z,15.40
2019-03-25T16:51:15.848Z,14.17
2019-03-25T16:53:44.244Z,14.93
2019-03-25T16:56:13.016Z,14.57
2019-03-25T16:58:41.667Z,14.60
2019-03-25T17:01:10.576Z,14.23
2019-03-25T17:03:39.457Z,14.30
2019-03-25T17:06:07.930Z,16.50
2019-03-25T17:08:36.627Z,14.50
2019-03-25T17:11:05.294Z,14.50
2019-03-25T17:13:33.666Z,13.90
2019-03-25T17:16:02.402Z,13.87
2019-03-25T17:18:31.162Z,12.50
2019-03-25T17:20:59.655Z,12.93
2019-03-25T17:23:28.098Z,11.20
2019-03-25T17:25:56.596Z,12.23
2019-03-25T17:28:25.672Z,12.10
2019-03-25T17:30:54.104Z,12.40
2019-03-25T17:33:22.504Z,11.03
2019-03-25T17:35:50.965Z,12.00
2019-03-25T17:38:19.371Z,10.50
2019-03-25T17:40:48.215Z,10.20
2019-03-25T17:43:16.608Z,9.90
2019-03-25T17:45:45.092Z,9.00
2019-03-25T17:48:13.482Z,8.63
2019-03-25T17:50:41.870Z,9.30
2019-03-25T17:53:10.625Z,8.60
2019-03-25T17:55:39.025Z,8.37
2019-03-25T17:58:08.215Z,7.90
2019-03-25T18:00:51.758Z,8.70
2019-03-25T18:03:20.440Z,8.20
2019-03-25T18:05:50.650Z,9.40
2019-03-25T18:08:19.435Z,9.13
2019-03-25T18:10:47.814Z,8.40
2019-03-25T18:13:22.395Z,9.13
2019-03-25T18:15:46.347Z,8.23
2019-03-25T18:18:14.721Z,8.47
2019-03-25T18:20:43.289Z,8.87
2019-03-25T18:23:11.794Z,9.30
2019-03-25T18:25:40.347Z,8.17
2019-03-25T18:28:08.782Z,8.63
2019-03-25T18:30:37.430Z,8.30
2019-03-25T18:33:05.831Z,8.70
2019-03-25T18:35:34.222Z,7.80
2019-03-25T18:38:02.598Z,7.10
2019-03-25T18:40:30.993Z,7.63
2019-03-25T18:42:59.465Z,7.97
2019-03-25T18:45:27.813Z,8.67
2019-03-25T18:47:56.215Z,8.20
2019-03-25T18:50:25.648Z,8.30
2019-03-25T18:52:56.757Z,8.60
2019-03-25T18:55:24.892Z,8.90
2019-03-25T18:57:53.525Z,9.37
2019-03-25T19:00:35.683Z,8.50
2019-03-25T19:03:05.750Z,8.43
2019-03-25T19:05:34.160Z,9.17
2019-03-25T19:08:05.021Z,9.00
2019-03-25T19:10:34.362Z,8.63
2019-03-25T19:13:02.963Z,9.00
2019-03-25T19:15:31.527Z,9.67
2019-03-25T19:18:00.567Z,9.60
2019-03-25T19:20:30.231Z,9.40
2019-03-25T19:22:58.810Z,9.83
2019-03-25T19:25:27.222Z,9.90
2019-03-25T19:27:55.941Z,8.93
2019-03-25T19:30:24.404Z,10.13
2019-03-25T19:32:52.803Z,10.33
2019-03-25T19:35:21.345Z,11.10
2019-03-25T19:37:49.850Z,10.70
2019-03-25T19:40:18.652Z,10.20
2019-03-25T19:42:47.219Z,11.00
2019-03-25T19:45:17.162Z,10.17
2019-03-25T19:47:45.627Z,10.07
2019-03-25T19:50:14.819Z,9.40
2019-03-25T19:52:43.344Z,10.30
2019-03-25T19:55:12.061Z,8.87
2019-03-25T19:57:40.489Z,8.77
2019-03-25T20:00:10.429Z,9.30
2019-03-25T20:02:39.190Z,9.63
2019-03-25T20:05:08.712Z,9.63
2019-03-25T20:07:37.701Z,9.70
2019-03-25T20:10:07.827Z,9.20
2019-03-25T20:12:36.497Z,9.80
2019-03-25T20:15:07.085Z,8.80
2019-03-25T20:17:35.662Z,8.47
2019-03-25T20:20:06.628Z,8.20
2019-03-25T20:22:35.027Z,9.07
2019-03-25T20:25:04.938Z,9.63
2019-03-25T20:27:33.507Z,8.70
2019-03-25T20:30:02.069Z,8.30
2019-03-25T20:32:31.874Z,9.20
2019-03-25T20:35:01.116Z,9.53
2019-03-25T20:37:30.763Z,8.80
2019-03-25T20:39:59.503Z,9.27
2019-03-25T20:42:28.154Z,9.43
2019-03-25T20:44:56.672Z,10.00
2019-03-25T20:47:25.348Z,9.10
2019-03-25T20:49:53.860Z,9.10
2019-03-25T20:52:24.481Z,10.23
2019-03-25T20:54:52.933Z,9.47
2019-03-25T20:57:21.647Z,10.13
2019-03-25T20:59:50.143Z,10.33
2019-03-25T21:02:18.540Z,10.10
2019-03-25T21:04:46.921Z,9.77
2019-03-25T21:07:15.406Z,10.87
2019-03-25T21:09:43.836Z,10.67
2019-03-25T21:12:12.225Z,10.33
2019-03-25T21:14:40.720Z,9.60
2019-03-25T21:17:09.207Z,10.60
2019-03-25T21:19:37.610Z,10.20
2019-03-25T21:22:06.006Z,10.73
2019-03-25T21:24:34.945Z,10.50
2019-03-25T21:27:04.024Z,11.20
2019-03-25T21:29:32.565Z,10.90
2019-03-25T21:32:00.925Z,10.43
2019-03-25T21:34:29.357Z,11.17
2019-03-25T21:36:57.848Z,10.37
2019-03-25T21:39:26.328Z,10.50
2019-03-25T21:41:55.146Z,9.60
2019-03-25T21:44:23.802Z,10.83
2019-03-25T21:46:52.333Z,10.90
2019-03-25T21:49:20.832Z,10.67
2019-03-25T21:51:49.209Z,11.20
2019-03-25T21:54:17.800Z,10.90
2019-03-25T21:56:49.734Z,12.57
2019-03-25T21:59:18.527Z,11.20
2019-03-25T22:01:47.208Z,10.70
2019-03-25T22:04:15.647Z,11.57
2019-03-25T22:06:44.341Z,10.80
2019-03-25T22:09:13.027Z,11.50
2019-03-25T22:11:41.408Z,11.50
2019-03-25T22:14:10.108Z,11.20
2019-03-25T22:16:38.498Z,12.40
2019-03-25T22:19:06.891Z,11.70
2019-03-25T22:21:35.284Z,10.70
2019-03-25T22:24:04.014Z,11.70
2019-03-25T22:26:32.401Z,11.73
2019-03-25T22:29:00.793Z,11.33
2019-03-25T22:31:29.196Z,10.60
2019-03-25T22:33:57.653Z,11.60
2019-03-25T22:36:26.053Z,11.30
2019-03-25T22:38:54.704Z,11.43
2019-03-25T22:41:23.110Z,11.90
2019-03-25T22:43:51.559Z,11.70
2019-03-25T22:46:20.030Z,12.70
2019-03-25T22:48:48.491Z,11.83
2019-03-25T22:51:16.900Z,12.60
2019-03-25T22:53:45.276Z,12.20
2019-03-25T22:56:13.677Z,12.20
2019-03-25T22:58:42.398Z,12.40
2019-03-25T23:01:10.914Z,12.23
2019-03-25T23:03:39.850Z,13.00
2019-03-25T23:06:08.630Z,12.50
2019-03-25T23:08:37.213Z,13.13
2019-03-25T23:11:05.606Z,12.80
2019-03-25T23:13:34.015Z,12.40
2019-03-25T23:16:02.469Z,12.30
2019-03-25T23:18:31.214Z,12.67
2019-03-25T23:20:59.692Z,12.93
2019-03-25T23:23:28.085Z,11.70
2019-03-25T23:25:56.521Z,12.13
2019-03-25T23:28:25.251Z,10.93
2019-03-25T23:30:53.649Z,12.77
2019-03-25T23:33:22.241Z,13.50
2019-03-25T23:35:50.640Z,11.50
2019-03-25T23:38:19.381Z,11.47
2019-03-25T23:40:48.141Z,11.23
2019-03-25T23:43:16.535Z,11.53
2019-03-25T23:45:45.037Z,11.47
2019-03-25T23:48:13.445Z,11.77
2019-03-25T23:50:41.844Z,12.23
2019-03-25T23:53:12.634Z,12.80
2019-03-25T23:55:40.367Z,11.93
2019-03-25T23:58:08.860Z,12.53
